Time;durP1;ratioP1;P1;durP2;ratioP2;P2;SDS_P1;SDS_P2;PMS_P1;PMS_P2;Temp;Humidity;BMP_temperature;BMP_pressure;BME280_temperature;BME280_humidity;BME280_pressure;Samples;Min_cycle;Max_cycle;Signal;HPM_P1;HPM_P2
2021/05/23 00:00:40;;;;;;;5.30;1.42;;;9.80;99.90;;;;;;4662002;30;20070;-81
2021/05/23 00:03:11;;;;;;;2.20;1.17;;;9.70;99.90;;;;;;4662751;30;20494;-80
2021/05/23 00:05:39;;;;;;;4.00;1.98;;;9.70;99.90;;;;;;4663336;30;20517;-80
2021/05/23 00:08:19;;;;;;;5.25;2.65;;;9.70;99.90;;;;;;4660725;30;20062;-81
2021/05/23 00:11:03;;;;;;;1.35;1.25;;;9.80;99.90;;;;;;4677017;30;20054;-80
2021/05/23 00:13:37;;;;;;;2.75;1.65;;;9.80;99.90;;;;;;4679839;30;20438;-80
2021/05/23 00:16:13;;;;;;;2.30;1.30;;;9.80;99.90;;;;;;4678953;30;20062;-80
2021/05/23 00:18:46;;;;;;;1.80;1.70;;;9.80;99.90;;;;;;4676696;30;20065;-81
2021/05/23 00:21:16;;;;;;;2.60;1.58;;;9.80;99.90;;;;;;4678751;30;20387;-80
2021/05/23 00:23:44;;;;;;;1.55;1.45;;;9.80;99.90;;;;;;4677108;30;20062;-81
2021/05/23 00:26:13;;;;;;;1.90;1.77;;;9.70;99.90;;;;;;4679520;30;20057;-80
2021/05/23 00:28:41;;;;;;;1.40;1.30;;;9.80;99.90;;;;;;4679852;30;20256;-80
2021/05/23 00:31:10;;;;;;;3.70;3.20;;;9.80;99.90;;;;;;4679482;30;20057;-80
2021/05/23 00:33:37;;;;;;;1.65;1.52;;;9.80;99.90;;;;;;4679679;30;20050;-80
2021/05/23 00:36:06;;;;;;;2.88;1.92;;;9.80;99.90;;;;;;4679909;30;20469;-81
2021/05/23 00:38:34;;;;;;;3.63;2.15;;;9.80;99.90;;;;;;4662356;30;20062;-80
2021/05/23 00:41:02;;;;;;;1.55;1.45;;;9.80;99.90;;;;;;4678031;30;20494;-80
2021/05/23 00:43:30;;;;;;;1.55;1.45;;;9.80;99.90;;;;;;4679629;30;20057;-80
2021/05/23 00:45:58;;;;;;;2.92;1.98;;;9.80;99.90;;;;;;4679325;30;20057;-80
2021/05/23 00:48:27;;;;;;;1.65;1.55;;;9.80;99.90;;;;;;4678734;30;20058;-80
2021/05/23 00:50:55;;;;;;;4.30;2.55;;;9.70;99.90;;;;;;4679431;30;20076;-80
2021/05/23 00:53:23;;;;;;;1.77;1.67;;;9.70;99.90;;;;;;4676093;30;20414;-81
2021/05/23 00:55:51;;;;;;;1.23;1.13;;;9.70;99.90;;;;;;4678648;30;20506;-81
2021/05/23 00:58:20;;;;;;;2.03;1.92;;;9.60;99.90;;;;;;4679600;30;20057;-81
2021/05/23 01:00:54;;;;;;;2.00;1.80;;;9.60;99.90;;;;;;4663268;30;20080;-81
2021/05/23 01:03:28;;;;;;;2.50;1.73;;;9.60;99.90;;;;;;4649431;30;20069;-81
2021/05/23 01:06:03;;;;;;;1.67;1.40;;;9.60;99.90;;;;;;4678869;30;20050;-81
2021/05/23 01:08:34;;;;;;;1.13;1.13;;;9.50;99.90;;;;;;4677571;30;20049;-82
2021/05/23 01:11:01;;;;;;;1.70;1.60;;;9.50;99.90;;;;;;4678711;30;20065;-83
2021/05/23 01:13:38;;;;;;;1.88;1.67;;;9.50;99.90;;;;;;4677412;30;20054;-81
2021/05/23 01:16:08;;;;;;;3.65;1.70;;;9.60;99.90;;;;;;4679342;30;20501;-81
2021/05/23 01:18:51;;;;;;;4.32;1.48;;;9.50;99.90;;;;;;4677240;30;20054;-83
2021/05/23 01:21:23;;;;;;;3.13;1.73;;;9.50;99.90;;;;;;4678316;30;20058;-83
2021/05/23 01:23:59;;;;;;;1.17;1.08;;;9.40;99.90;;;;;;4648132;30;20053;-83
2021/05/23 01:26:37;;;;;;;1.30;1.20;;;9.40;99.90;;;;;;4663298;30;20057;-83
2021/05/23 01:29:11;;;;;;;2.53;1.27;;;9.30;99.90;;;;;;4663167;30;20058;-82
2021/05/23 01:31:40;;;;;;;1.15;1.10;;;9.30;99.90;;;;;;4649013;30;20053;-83
2021/05/23 01:34:15;;;;;;;;;;;9.20;99.90;;;;;;4663044;30;20506;-83
2021/05/23 01:36:46;;;;;;;1.45;1.30;;;9.20;99.90;;;;;;4671299;30;19942;-83
2021/05/23 01:39:14;;;;;;;1.23;1.23;;;9.20;99.90;;;;;;4648352;30;20054;-83
2021/05/23 01:41:43;;;;;;;1.27;1.17;;;9.10;99.90;;;;;;4677145;30;20050;-83
2021/05/23 01:44:11;;;;;;;1.50;1.33;;;9.10;99.90;;;;;;4677304;30;20062;-82
2021/05/23 01:46:40;;;;;;;1.35;1.30;;;9.10;99.90;;;;;;4679527;30;20422;-82
2021/05/23 01:49:09;;;;;;;2.20;0.90;;;9.10;99.90;;;;;;4678718;30;20057;-82
2021/05/23 01:51:37;;;;;;;1.15;1.05;;;9.10;99.90;;;;;;4650940;30;20058;-83
2021/05/23 01:54:05;;;;;;;1.85;1.20;;;9.10;99.90;;;;;;4665487;30;20524;-83
2021/05/23 01:56:33;;;;;;;1.00;1.00;;;9.00;99.90;;;;;;4666604;30;20045;-83
2021/05/23 01:59:01;;;;;;;1.95;1.85;;;9.00;99.90;;;;;;4682385;30;20517;-83
2021/05/23 02:01:28;;;;;;;20.02;2.78;;;9.10;99.90;;;;;;4651853;30;20050;-83
2021/05/23 02:04:00;;;;;;;0.95;0.95;;;9.10;99.90;;;;;;4666508;30;20501;-83
2021/05/23 02:06:28;;;;;;;5.45;1.25;;;9.10;99.90;;;;;;4682078;30;20054;-83
2021/05/23 02:08:56;;;;;;;1.20;1.10;;;9.00;99.90;;;;;;4664663;30;20241;-83
2021/05/23 02:11:24;;;;;;;2.45;1.10;;;9.10;99.90;;;;;;4681749;30;20058;-84
2021/05/23 02:13:53;;;;;;;2.00;1.45;;;9.00;99.90;;;;;;4681621;30;20061;-84
2021/05/23 02:16:21;;;;;;;1.50;1.15;;;9.00;99.90;;;;;;4681663;30;20055;-84
2021/05/23 02:18:49;;;;;;;2.00;1.83;;;9.00;99.90;;;;;;4680014;30;20485;-83
2021/05/23 02:21:17;;;;;;;2.28;1.67;;;9.00;99.90;;;;;;4679697;30;20050;-82
2021/05/23 02:23:50;;;;;;;1.30;1.20;;;9.00;99.90;;;;;;4680610;30;20073;-84
2021/05/23 02:26:19;;;;;;;1.45;1.35;;;9.00;99.90;;;;;;4681850;30;20250;-83
2021/05/23 02:28:47;;;;;;;0.80;0.80;;;9.00;99.90;;;;;;4665900;30;20050;-79
2021/05/23 02:31:15;;;;;;;1.90;1.83;;;8.90;99.90;;;;;;4680289;30;20505;-79
2021/05/23 02:33:42;;;;;;;1.42;1.30;;;8.90;99.90;;;;;;4681162;30;20521;-79
2021/05/23 02:36:10;;;;;;;3.20;2.13;;;8.90;99.90;;;;;;4681577;30;20065;-79
2021/05/23 02:38:39;;;;;;;1.08;1.08;;;8.80;99.90;;;;;;4680369;30;20065;-80
2021/05/23 02:41:07;;;;;;;2.67;1.15;;;8.80;99.90;;;;;;4680261;30;20054;-79
2021/05/23 02:43:34;;;;;;;0.90;0.90;;;8.80;99.90;;;;;;4681906;30;20065;-79
2021/05/23 02:46:04;;;;;;;1.75;1.63;;;8.80;99.90;;;;;;4681561;30;20050;-79
2021/05/23 02:48:31;;;;;;;1.33;1.23;;;8.80;99.90;;;;;;4681050;30;20054;-79
2021/05/23 02:51:03;;;;;;;1.23;0.90;;;8.80;99.90;;;;;;4681421;30;20062;-79
2021/05/23 02:53:31;;;;;;;;;;;8.80;99.90;;;;;;4679975;30;20054;-79
2021/05/23 02:55:59;;;;;;;2.35;1.25;;;8.80;99.90;;;;;;4681660;30;19939;-79
2021/05/23 02:58:27;;;;;;;1.02;0.93;;;8.80;99.90;;;;;;4680487;30;20061;-79
2021/05/23 03:00:55;;;;;;;4.13;1.20;;;8.80;99.90;;;;;;4680470;30;20050;-79
2021/05/23 03:03:23;;;;;;;5.95;1.30;;;8.80;99.90;;;;;;4680679;30;20054;-79
2021/05/23 03:05:51;;;;;;;2.15;1.10;;;8.80;99.90;;;;;;4681526;30;20493;-81
2021/05/23 03:08:19;;;;;;;1.10;1.00;;;8.80;99.90;;;;;;4679509;30;20062;-78
2021/05/23 03:10:51;;;;;;;1.70;1.10;;;8.70;99.90;;;;;;4680816;30;20066;-78
2021/05/23 03:13:19;;;;;;;1.20;1.10;;;8.70;99.90;;;;;;4680707;30;20065;-79
2021/05/23 03:15:47;;;;;;;1.40;1.30;;;8.70;99.90;;;;;;4666084;30;20390;-78
2021/05/23 03:18:15;;;;;;;1.50;1.40;;;8.70;99.90;;;;;;4680238;30;20042;-79
2021/05/23 03:20:44;;;;;;;1.98;1.38;;;8.60;99.90;;;;;;4678827;30;20057;-79
2021/05/23 03:23:12;;;;;;;7.40;1.55;;;8.60;99.90;;;;;;4679178;30;20073;-80
2021/05/23 03:25:40;;;;;;;2.40;1.35;;;8.60;99.90;;;;;;4679265;30;20383;-80
2021/05/23 03:28:08;;;;;;;1.55;1.45;;;8.60;99.90;;;;;;4680849;30;20070;-78
2021/05/23 03:30:39;;;;;;;3.42;1.42;;;8.60;99.90;;;;;;4679377;30;20074;-79
2021/05/23 03:33:09;;;;;;;1.23;1.17;;;8.60;99.90;;;;;;4680281;30;20058;-78
2021/05/23 03:35:38;;;;;;;1.50;1.40;;;8.60;99.90;;;;;;4681016;30;20073;-78
2021/05/23 03:38:06;;;;;;;1.48;1.40;;;8.60;99.90;;;;;;4663503;30;20054;-78
2021/05/23 03:40:36;;;;;;;3.65;1.25;;;8.60;99.90;;;;;;4679881;30;20045;-80
2021/05/23 03:43:05;;;;;;;2.65;1.10;;;8.60;99.90;;;;;;4665510;30;20572;-78
2021/05/23 03:45:33;;;;;;;6.32;1.60;;;8.60;99.90;;;;;;4680640;30;20453;-78
2021/05/23 03:48:02;;;;;;;2.35;1.52;;;8.60;99.90;;;;;;4680467;30;20069;-79
2021/05/23 03:50:31;;;;;;;2.47;1.30;;;8.50;99.90;;;;;;4664946;30;20061;-78
2021/05/23 03:52:59;;;;;;;1.25;1.10;;;8.50;99.90;;;;;;4678717;30;20054;-78
2021/05/23 03:55:28;;;;;;;1.67;1.58;;;8.50;99.90;;;;;;4680601;30;20068;-78
2021/05/23 03:57:57;;;;;;;2.05;0.90;;;8.50;99.90;;;;;;4680432;30;20049;-79
2021/05/23 04:00:26;;;;;;;1.38;1.27;;;8.50;99.90;;;;;;4678705;30;20066;-78
2021/05/23 04:02:56;;;;;;;1.70;1.60;;;8.40;99.90;;;;;;4680117;30;20236;-78
2021/05/23 04:05:26;;;;;;;3.08;1.13;;;8.40;99.90;;;;;;4680279;30;20062;-78
2021/05/23 04:07:55;;;;;;;2.00;1.27;;;8.30;99.90;;;;;;4678934;30;20084;-79
2021/05/23 04:10:28;;;;;;;7.80;1.70;;;8.30;99.90;;;;;;4679599;30;20545;-79
2021/05/23 04:13:00;;;;;;;2.13;1.80;;;8.30;99.90;;;;;;4678461;30;20061;-78
2021/05/23 04:15:29;;;;;;;1.83;1.48;;;8.10;99.90;;;;;;4679434;30;20091;-78
2021/05/23 04:17:57;;;;;;;1.48;1.23;;;8.00;99.90;;;;;;4679421;30;20061;-77
2021/05/23 04:20:26;;;;;;;2.00;1.85;;;8.00;99.90;;;;;;4678202;30;20062;-77
2021/05/23 04:22:54;;;;;;;1.30;1.20;;;7.90;99.90;;;;;;4678320;30;20066;-77
2021/05/23 04:25:24;;;;;;;2.75;2.03;;;7.90;99.90;;;;;;4678424;30;20060;-77
2021/05/23 04:27:53;;;;;;;1.30;1.20;;;7.80;99.90;;;;;;4680132;30;20065;-78
2021/05/23 04:30:24;;;;;;;1.20;1.17;;;7.80;99.90;;;;;;4678065;30;20046;-78
2021/05/23 04:32:52;;;;;;;1.40;1.30;;;7.70;99.90;;;;;;4678039;30;20062;-78
2021/05/23 04:35:21;;;;;;;4.70;1.73;;;7.70;99.90;;;;;;4680029;30;20062;-77
2021/05/23 04:37:50;;;;;;;1.65;1.55;;;7.70;99.90;;;;;;4678087;30;20580;-78
2021/05/23 04:40:18;;;;;;;1.52;1.42;;;7.70;99.90;;;;;;4678991;30;20062;-77
2021/05/23 04:42:47;;;;;;;1.50;1.17;;;7.70;99.90;;;;;;4679689;30;20069;-78
2021/05/23 04:45:38;;;;;;;2.00;1.83;;;7.60;99.90;;;;;;4679547;30;20049;-78
2021/05/23 04:48:07;;;;;;;5.05;2.00;;;7.60;99.90;;;;;;4679291;30;20058;-78
2021/05/23 04:50:35;;;;;;;1.58;1.50;;;7.60;99.90;;;;;;4678575;30;20062;-78
2021/05/23 04:53:05;;;;;;;2.80;1.58;;;7.60;99.90;;;;;;4677765;30;20536;-78
2021/05/23 04:55:33;;;;;;;3.80;1.20;;;7.60;99.90;;;;;;4679866;30;20076;-78
2021/05/23 04:58:03;;;;;;;3.67;2.95;;;7.60;99.90;;;;;;4679336;30;20065;-78
2021/05/23 05:00:31;;;;;;;3.65;1.30;;;7.60;99.90;;;;;;4678814;30;20620;-77
2021/05/23 05:02:59;;;;;;;1.08;1.08;;;7.60;99.90;;;;;;4679169;30;20101;-77
2021/05/23 05:05:27;;;;;;;1.67;1.58;;;7.60;99.90;;;;;;4679401;30;20394;-78
2021/05/23 05:07:55;;;;;;;0.98;0.98;;;7.60;99.90;;;;;;4676204;30;20070;-78
2021/05/23 05:10:23;;;;;;;1.33;1.23;;;7.50;99.90;;;;;;4678785;30;20425;-77
2021/05/23 05:12:50;;;;;;;1.38;1.30;;;7.50;99.90;;;;;;4678882;30;20065;-78
2021/05/23 05:15:24;;;;;;;2.58;1.30;;;7.40;99.90;;;;;;4678052;30;20414;-78
2021/05/23 05:17:52;;;;;;;2.70;0.70;;;7.40;99.90;;;;;;4678653;30;20057;-78
2021/05/23 05:20:20;;;;;;;0.90;0.90;;;7.30;99.90;;;;;;4678152;30;20093;-78
2021/05/23 05:22:50;;;;;;;0.50;0.50;;;7.30;99.90;;;;;;4678032;30;20501;-78
2021/05/23 05:25:19;;;;;;;1.25;1.08;;;7.30;99.90;;;;;;4679331;30;20056;-78
2021/05/23 05:27:47;;;;;;;1.42;0.85;;;7.30;99.90;;;;;;4669551;30;20073;-79
2021/05/23 05:30:16;;;;;;;0.60;0.60;;;7.20;99.90;;;;;;4684261;30;20056;-78
2021/05/23 05:32:43;;;;;;;2.45;0.60;;;7.20;99.90;;;;;;4684522;30;20061;-78
2021/05/23 05:35:12;;;;;;;0.73;0.73;;;7.20;99.90;;;;;;4684999;30;20073;-77
2021/05/23 05:37:39;;;;;;;0.55;0.55;;;7.30;99.90;;;;;;4684668;30;20057;-78
2021/05/23 05:40:08;;;;;;;0.60;0.60;;;7.20;99.90;;;;;;4667036;30;20058;-78
2021/05/23 05:42:36;;;;;;;0.70;0.70;;;7.30;99.90;;;;;;4684968;30;20058;-78
2021/05/23 05:45:05;;;;;;;0.60;0.60;;;7.20;99.90;;;;;;4684712;30;20053;-78
2021/05/23 05:47:32;;;;;;;0.65;0.65;;;7.30;99.90;;;;;;4685098;30;20054;-78
2021/05/23 05:50:01;;;;;;;0.70;0.70;;;7.20;99.90;;;;;;4683834;30;20061;-78
2021/05/23 05:52:34;;;;;;;0.70;0.70;;;7.30;99.90;;;;;;4688479;30;20477;-84
2021/05/23 05:55:13;;;;;;;1.02;1.02;;;7.30;99.90;;;;;;4684363;30;20062;-84
2021/05/23 05:57:46;;;;;;;0.70;0.70;;;7.30;99.90;;;;;;4655103;30;20064;-85
2021/05/23 06:00:26;;;;;;;0.90;0.90;;;7.30;99.90;;;;;;4669815;30;20089;-84
2021/05/23 06:03:13;;;;;;;0.60;0.60;;;7.30;99.90;;;;;;4654282;30;20609;-85
2021/05/23 06:05:57;;;;;;;0.80;0.80;;;7.30;99.90;;;;;;4660026;30;20046;-83
2021/05/23 06:09:25;;;;;;;0.60;0.60;;;7.30;99.90;;;;;;4655587;30;20626;-84
2021/05/23 06:12:17;;;;;;;0.65;0.57;;;7.30;99.90;;;;;;4654138;30;20065;-84
2021/05/23 06:15:19;;;;;;;3.35;0.70;;;7.20;99.90;;;;;;4617458;30;20069;-84
2021/05/23 06:18:18;;;;;;;0.57;0.57;;;7.20;99.90;;;;;;4636405;30;20055;-84
2021/05/23 06:21:31;;;;;;;0.77;0.77;;;7.10;99.90;;;;;;4634519;30;20079;-85
2021/05/23 06:24:34;;;;;;;1.83;0.90;;;7.20;99.90;;;;;;4622858;30;20047;-84
2021/05/23 06:27:25;;;;;;;0.50;0.50;;;7.10;99.90;;;;;;4622366;30;20063;-86
2021/05/23 06:30:30;;;;;;;0.50;0.50;;;7.10;99.90;;;;;;4625544;30;20054;-84
2021/05/23 06:33:22;;;;;;;0.60;0.60;;;7.10;99.90;;;;;;4634221;30;20566;-85
2021/05/23 06:39:02;;;;;;;0.50;0.50;;;7.10;99.90;;;;;;4626069;30;20398;-85
2021/05/23 06:41:48;;;;;;;0.50;0.50;;;7.20;99.90;;;;;;4647149;30;20067;-85
2021/05/23 06:44:20;;;;;;;0.60;0.60;;;7.20;99.90;;;;;;4625190;30;20058;-84
2021/05/23 06:47:03;;;;;;;2.15;2.05;;;7.10;99.90;;;;;;4657468;30;20526;-85
2021/05/23 06:49:36;;;;;;;0.40;0.40;;;7.10;99.90;;;;;;4654238;30;20509;-86
2021/05/23 06:52:40;;;;;;;0.70;0.60;;;7.10;99.90;;;;;;4661753;30;20069;-86
2021/05/23 06:59:15;;;;;;;0.47;0.40;;;7.20;99.90;;;;;;4661650;30;20505;-85
2021/05/23 07:02:13;;;;;;;0.40;0.40;;;7.20;99.90;;;;;;4621215;30;20058;-85
2021/05/23 07:09:29;;;;;;;0.50;0.50;;;7.20;99.90;;;;;;4676011;30;20619;-85
2021/05/23 07:12:01;;;;;;;0.60;0.50;;;7.10;99.90;;;;;;4646521;30;20486;-85
2021/05/23 07:15:03;;;;;;;0.50;0.50;;;7.00;99.90;;;;;;4644320;30;20357;-84
2021/05/23 07:17:57;;;;;;;0.60;0.60;;;7.00;99.90;;;;;;4646208;30;20048;-85
2021/05/23 07:21:03;;;;;;;1.40;0.50;;;7.10;99.90;;;;;;4590291;31;20394;-88
2021/05/23 07:24:00;;;;;;;0.40;0.40;;;7.00;99.90;;;;;;4569763;31;20064;-83
2021/05/23 07:26:29;;;;;;;0.40;0.40;;;7.00;99.90;;;;;;4593356;30;20060;-82
2021/05/23 07:28:57;;;;;;;0.30;0.30;;;7.00;99.90;;;;;;4594036;31;20508;-82
2021/05/23 07:31:26;;;;;;;0.40;0.40;;;6.90;99.90;;;;;;4607281;31;20083;-84
2021/05/23 07:33:56;;;;;;;0.50;0.50;;;7.00;99.90;;;;;;4596963;30;20056;-87
2021/05/23 07:36:28;;;;;;;0.50;0.50;;;6.90;99.90;;;;;;4611881;30;20064;-87
2021/05/23 07:39:00;;;;;;;0.40;0.40;;;6.90;99.90;;;;;;4644215;30;20509;-84
2021/05/23 07:41:32;;;;;;;1.77;0.50;;;6.80;99.90;;;;;;4659441;30;20059;-87
2021/05/23 07:44:08;;;;;;;0.50;0.50;;;7.00;99.90;;;;;;4673301;30;20067;-86
2021/05/23 07:47:06;;;;;;;0.50;0.50;;;6.90;99.90;;;;;;4658367;30;20510;-85
2021/05/23 07:49:54;;;;;;;2.65;0.50;;;6.90;99.90;;;;;;4656733;30;20069;-87
2021/05/23 07:53:17;;;;;;;0.43;0.43;;;6.80;99.90;;;;;;4638432;30;20057;-86
2021/05/23 07:56:14;;;;;;;0.70;0.50;;;6.80;99.90;;;;;;4636323;30;20052;-84
2021/05/23 07:58:52;;;;;;;0.40;0.40;;;6.80;99.90;;;;;;4724607;24;20071;-88
2021/05/23 08:01:37;;;;;;;0.50;0.50;;;6.80;99.90;;;;;;4732992;30;20048;-84
2021/05/23 08:04:05;;;;;;;0.55;0.50;;;6.90;99.90;;;;;;4734122;30;20067;-84
2021/05/23 08:06:37;;;;;;;0.70;0.70;;;7.00;99.90;;;;;;4747089;30;20454;-85
2021/05/23 08:09:19;;;;;;;0.50;0.50;;;7.00;99.90;;;;;;4729004;30;20526;-84
2021/05/23 08:11:48;;;;;;;0.75;0.50;;;7.10;99.90;;;;;;4716541;30;20064;-84
2021/05/23 08:14:26;;;;;;;0.50;0.50;;;7.10;99.90;;;;;;4729885;30;20067;-85
2021/05/23 08:17:31;;;;;;;0.52;0.52;;;7.20;99.90;;;;;;4724026;30;20404;-85
2021/05/23 08:20:02;;;;;;;0.60;0.60;;;7.20;99.90;;;;;;4747339;30;20052;-84
2021/05/23 08:22:30;;;;;;;0.50;0.50;;;7.30;99.90;;;;;;4703528;30;20047;-84
2021/05/23 08:25:08;;;;;;;0.73;0.73;;;7.30;99.90;;;;;;4695456;30;20063;-84
2021/05/23 08:28:02;;;;;;;0.50;0.50;;;7.60;99.90;;;;;;4733592;30;20067;-85
2021/05/23 08:30:30;;;;;;;0.52;0.50;;;7.50;99.90;;;;;;4747435;30;20059;-84
2021/05/23 08:33:21;;;;;;;0.50;0.50;;;7.60;99.90;;;;;;4717552;30;20153;-86
2021/05/23 08:35:52;;;;;;;0.55;0.55;;;7.60;99.90;;;;;;4731692;30;20067;-85
2021/05/23 08:38:29;;;;;;;0.57;0.57;;;7.80;99.90;;;;;;4729533;30;20048;-85
2021/05/23 08:41:22;;;;;;;1.65;0.65;;;7.90;99.90;;;;;;4721824;30;20048;-84
2021/05/23 08:43:51;;;;;;;1.25;1.13;;;8.00;99.90;;;;;;4717595;30;20060;-84
2021/05/23 08:46:42;;;;;;;0.50;0.50;;;8.00;99.90;;;;;;4705864;30;20055;-85
2021/05/23 08:49:57;;;;;;;0.52;0.52;;;8.00;99.90;;;;;;4731880;30;20064;-86
2021/05/23 08:52:28;;;;;;;0.75;0.75;;;8.00;99.90;;;;;;4745335;30;20056;-85
2021/05/23 08:55:21;;;;;;;0.40;0.40;;;7.90;99.90;;;;;;4744665;30;20075;-85
2021/05/23 08:58:02;;;;;;;0.60;0.60;;;8.00;99.90;;;;;;4721203;30;20074;-85
2021/05/23 09:01:26;;;;;;;0.80;0.80;;;8.00;99.90;;;;;;4748200;30;20361;-86
2021/05/23 09:04:25;;;;;;;0.73;0.73;;;8.10;99.90;;;;;;4723011;29;20077;-86
2021/05/23 09:10:59;;;;;;;1.20;1.10;;;8.10;99.90;;;;;;4725778;30;20051;-85
2021/05/23 09:13:39;;;;;;;1.27;0.82;;;8.20;99.90;;;;;;4751977;30;20051;-83
2021/05/23 09:16:13;;;;;;;0.82;0.82;;;8.30;99.90;;;;;;4750792;30;20059;-84
2021/05/23 09:18:55;;;;;;;0.80;0.60;;;8.40;99.90;;;;;;4733953;30;20062;-85
2021/05/23 09:21:28;;;;;;;0.80;0.80;;;8.60;99.90;;;;;;4749066;30;20513;-84
2021/05/23 09:23:58;;;;;;;1.02;0.70;;;8.80;99.90;;;;;;4720214;30;20248;-85
2021/05/23 09:26:33;;;;;;;1.20;0.70;;;8.80;99.90;;;;;;4735152;30;20041;-79
2021/05/23 09:29:10;;;;;;;0.80;0.80;;;8.90;99.90;;;;;;4749720;30;20052;-80
2021/05/23 09:31:38;;;;;;;2.97;0.90;;;8.90;99.90;;;;;;4750979;30;20060;-78
2021/05/23 09:34:06;;;;;;;0.50;0.50;;;9.20;99.90;;;;;;4748132;30;20052;-79
2021/05/23 09:36:45;;;;;;;1.17;1.08;;;9.30;99.90;;;;;;4759199;30;20059;-80
2021/05/23 09:39:12;;;;;;;0.75;0.70;;;9.40;99.90;;;;;;4749127;30;20067;-79
2021/05/23 09:41:41;;;;;;;0.50;0.50;;;9.50;99.90;;;;;;4765462;30;20056;-79
2021/05/23 09:44:20;;;;;;;0.50;0.50;;;9.50;99.90;;;;;;4765782;30;20067;-80
2021/05/23 09:46:54;;;;;;;0.63;0.60;;;9.50;99.90;;;;;;4766464;30;20060;-79
2021/05/23 09:49:23;;;;;;;0.50;0.50;;;9.50;99.90;;;;;;4765893;30;20048;-81
2021/05/23 09:52:04;;;;;;;0.77;0.60;;;9.60;99.90;;;;;;4750162;30;20059;-81
2021/05/23 09:54:44;;;;;;;0.55;0.55;;;9.50;99.90;;;;;;4764180;30;20444;-81
2021/05/23 09:57:17;;;;;;;1.37;0.70;;;9.50;99.90;;;;;;4766000;30;20091;-79
2021/05/23 09:59:45;;;;;;;0.90;0.90;;;9.40;99.90;;;;;;4766052;30;20067;-79
2021/05/23 10:02:14;;;;;;;0.80;0.57;;;9.20;99.90;;;;;;4765975;30;20059;-78
2021/05/23 10:04:42;;;;;;;0.40;0.40;;;9.10;99.90;;;;;;4749842;30;20406;-78
2021/05/23 10:07:12;;;;;;;1.48;0.60;;;8.90;99.90;;;;;;4766146;30;20060;-84
2021/05/23 10:09:44;;;;;;;0.80;0.50;;;8.10;99.90;;;;;;4736249;30;20073;-84
2021/05/23 10:12:14;;;;;;;0.75;0.63;;;7.10;99.90;;;;;;4720629;30;20060;-85
2021/05/23 10:14:42;;;;;;;0.80;0.80;;;7.00;99.90;;;;;;4753326;30;20059;-85
2021/05/23 10:17:10;;;;;;;6.55;0.95;;;6.80;99.90;;;;;;4738279;30;20059;-85
2021/05/23 10:19:47;;;;;;;1.60;1.25;;;6.90;99.90;;;;;;4738398;30;20064;-85
2021/05/23 10:22:15;;;;;;;0.80;0.80;;;7.20;99.90;;;;;;4752122;30;20402;-84
2021/05/23 10:24:50;;;;;;;1.00;1.00;;;7.60;99.90;;;;;;4751588;30;20040;-85
2021/05/23 10:27:22;;;;;;;0.55;0.55;;;8.00;99.90;;;;;;4769750;30;20063;-86
2021/05/23 10:29:56;;;;;;;1.67;1.58;;;8.10;99.90;;;;;;4752883;30;20058;-84
2021/05/23 10:32:31;;;;;;;0.70;0.70;;;8.30;99.90;;;;;;4752852;30;20063;-86
2021/05/23 10:35:22;;;;;;;0.57;0.55;;;8.30;99.90;;;;;;4744960;30;20064;-87
2021/05/23 10:37:53;;;;;;;0.40;0.40;;;8.40;99.90;;;;;;4742064;30;20060;-84
2021/05/23 10:40:57;;;;;;;0.82;0.75;;;8.30;99.90;;;;;;4726316;30;20073;-86
2021/05/23 10:43:36;;;;;;;1.02;0.70;;;8.40;99.90;;;;;;4719148;30;20077;-83
2021/05/23 10:46:13;;;;;;;0.50;0.50;;;8.60;99.90;;;;;;4720033;30;20104;-86
2021/05/23 10:49:25;;;;;;;1.10;0.73;;;8.70;99.90;;;;;;4749756;30;20040;-86
2021/05/23 10:52:00;;;;;;;0.85;0.75;;;9.20;99.90;;;;;;4734433;30;20056;-86
2021/05/23 10:54:32;;;;;;;0.57;0.50;;;9.30;99.90;;;;;;4749481;30;20430;-85
2021/05/23 10:57:01;;;;;;;2.15;0.68;;;9.30;99.90;;;;;;4736150;30;20060;-86
2021/05/23 11:00:04;;;;;;;1.10;0.80;;;9.40;99.90;;;;;;4720724;30;20067;-86
2021/05/23 11:03:18;;;;;;;0.50;0.50;;;9.60;99.90;;;;;;4748702;30;20055;-86
2021/05/23 11:06:22;;;;;;;0.57;0.57;;;9.50;99.90;;;;;;4683910;30;20067;-84
2021/05/23 11:08:50;;;;;;;0.60;0.60;;;9.60;99.90;;;;;;4696835;30;20512;-86
2021/05/23 11:11:21;;;;;;;0.60;0.60;;;9.60;99.90;;;;;;4698339;30;20057;-85
2021/05/23 11:13:49;;;;;;;2.35;0.90;;;9.60;99.90;;;;;;4684029;30;20045;-81
2021/05/23 11:16:17;;;;;;;0.63;0.63;;;10.10;99.90;;;;;;4704413;30;20052;-82
2021/05/23 11:18:46;;;;;;;0.77;0.77;;;10.60;99.90;;;;;;4749114;30;20088;-84
2021/05/23 11:21:16;;;;;;;0.55;0.55;;;11.20;99.90;;;;;;4748460;30;20056;-85
2021/05/23 11:23:54;;;;;;;1.75;0.63;;;11.20;99.90;;;;;;4717908;30;20439;-84
2021/05/23 11:26:32;;;;;;;0.80;0.73;;;10.80;99.90;;;;;;4729470;30;20048;-85
2021/05/23 11:36:52;;;;;;;0.43;0.43;;;10.90;99.90;;;;;;4615260;30;20548;-83
2021/05/23 11:39:41;;;;;;;0.80;0.80;;;11.30;99.90;;;;;;4629962;30;20061;-82
2021/05/23 11:46:56;;;;;;;1.42;1.15;;;11.50;99.90;;;;;;4717974;30;20675;-83
2021/05/23 11:50:04;;;;;;;0.50;0.50;;;11.60;99.90;;;;;;4668366;30;20095;-82
2021/05/23 11:53:12;;;;;;;0.55;0.55;;;11.80;99.90;;;;;;4661128;30;20059;-82
2021/05/23 11:55:54;;;;;;;0.60;0.60;;;12.10;99.90;;;;;;4649753;30;20089;-82
2021/05/23 11:58:48;;;;;;;0.40;0.40;;;12.10;99.90;;;;;;4695029;30;20519;-82
2021/05/23 12:02:02;;;;;;;3.63;0.95;;;12.10;99.90;;;;;;4693697;30;20075;-83
2021/05/23 12:05:41;;;;;;;0.47;0.47;;;12.30;99.90;;;;;;4705804;30;20056;-82
2021/05/23 12:12:09;;;;;;;2.28;2.08;;;13.00;99.90;;;;;;4691966;30;20061;-82
2021/05/23 12:14:41;;;;;;;0.80;0.60;;;12.40;99.90;;;;;;4726968;30;20061;-81
2021/05/23 12:17:19;;;;;;;;;;;12.40;99.90;;;;;;4713854;30;20515;-82
2021/05/23 12:19:48;;;;;;;0.73;0.60;;;12.50;99.90;;;;;;4698489;30;19938;-82
2021/05/23 12:22:21;;;;;;;0.40;0.40;;;12.50;99.90;;;;;;4712690;30;20064;-82
2021/05/23 12:24:52;;;;;;;1.75;0.60;;;12.20;99.90;;;;;;4697374;30;20087;-81
2021/05/23 12:27:28;;;;;;;0.93;0.93;;;12.40;99.90;;;;;;4713853;30;20063;-81
2021/05/23 12:30:07;;;;;;;0.50;0.50;;;13.10;99.90;;;;;;4712728;30;20060;-81
2021/05/23 12:33:02;;;;;;;1.00;0.50;;;13.40;99.90;;;;;;4712788;30;20516;-81
2021/05/23 12:35:31;;;;;;;0.65;0.65;;;13.20;99.90;;;;;;4715643;30;20055;-82
2021/05/23 12:38:12;;;;;;;2.20;0.70;;;13.20;99.90;;;;;;4730144;30;20533;-81
2021/05/23 12:40:50;;;;;;;0.90;0.90;;;13.20;99.90;;;;;;4729875;30;20250;-82
2021/05/23 12:43:24;;;;;;;0.50;0.50;;;13.30;99.20;;;;;;4715786;30;20553;-80
2021/05/23 12:46:00;;;;;;;0.70;0.70;;;12.90;99.90;;;;;;4730167;30;20061;-79
2021/05/23 12:48:42;;;;;;;0.30;0.30;;;13.20;99.90;;;;;;4729710;30;20052;-81
2021/05/23 12:51:11;;;;;;;0.88;0.65;;;13.30;99.90;;;;;;4729361;30;20067;-82
2021/05/23 12:53:52;;;;;;;0.55;0.50;;;13.50;99.90;;;;;;4729711;30;20057;-81
2021/05/23 12:56:23;;;;;;;0.40;0.40;;;13.50;98.00;;;;;;4731561;30;20064;-81
2021/05/23 12:59:02;;;;;;;1.45;1.38;;;13.10;98.80;;;;;;4738050;30;20068;-81
2021/05/23 13:01:41;;;;;;;0.57;0.57;;;12.80;99.90;;;;;;4747610;30;20426;-82
2021/05/23 13:04:19;;;;;;;2.08;0.68;;;13.40;99.90;;;;;;4717194;30;20067;-81
2021/05/23 13:07:02;;;;;;;1.42;1.15;;;13.40;99.90;;;;;;4718974;30;20060;-81
2021/05/23 13:09:30;;;;;;;2.75;0.70;;;13.30;99.90;;;;;;4731555;30;20055;-80
2021/05/23 13:12:02;;;;;;;0.63;0.50;;;13.30;99.90;;;;;;4748999;30;20052;-81
2021/05/23 13:14:33;;;;;;;0.80;0.50;;;13.40;99.90;;;;;;4732840;30;20495;-81
2021/05/23 13:17:03;;;;;;;0.40;0.40;;;13.50;99.90;;;;;;4749103;30;20392;-81
2021/05/23 13:19:51;;;;;;;1.00;0.45;;;13.50;99.70;;;;;;4733182;30;20064;-81
2021/05/23 13:22:20;;;;;;;0.38;0.38;;;13.20;99.00;;;;;;4732645;30;20070;-82
2021/05/23 13:24:48;;;;;;;1.35;0.60;;;13.00;98.40;;;;;;4730833;30;20491;-81
2021/05/23 13:27:17;;;;;;;0.57;0.57;;;12.20;99.90;;;;;;4747890;30;20071;-81
2021/05/23 13:29:46;;;;;;;0.50;0.50;;;11.90;99.90;;;;;;4747232;30;20052;-81
2021/05/23 13:32:15;;;;;;;2.55;0.98;;;12.10;99.90;;;;;;4748208;30;20064;-82
2021/05/23 13:34:43;;;;;;;0.43;0.43;;;11.90;99.90;;;;;;4732951;30;20137;-81
2021/05/23 13:37:12;;;;;;;1.95;0.55;;;11.90;99.90;;;;;;4732461;30;20048;-81
2021/05/23 13:39:40;;;;;;;0.68;0.68;;;12.10;99.90;;;;;;4730857;30;20061;-81
2021/05/23 13:42:09;;;;;;;0.40;0.40;;;12.20;99.90;;;;;;4747983;30;20571;-82
2021/05/23 13:44:36;;;;;;;0.65;0.63;;;12.50;99.90;;;;;;4732582;30;20048;-82
2021/05/23 13:47:04;;;;;;;0.40;0.40;;;12.60;99.90;;;;;;4733895;30;20056;-82
2021/05/23 13:49:33;;;;;;;0.77;0.63;;;12.50;99.90;;;;;;4751391;30;20049;-80
2021/05/23 13:52:01;;;;;;;0.80;0.80;;;12.80;99.90;;;;;;4751710;30;20056;-81
2021/05/23 13:54:29;;;;;;;0.50;0.50;;;12.70;99.90;;;;;;4734731;30;20064;-81
2021/05/23 13:56:58;;;;;;;1.30;1.25;;;12.80;99.90;;;;;;4736130;30;20052;-80
2021/05/23 13:59:27;;;;;;;2.33;2.03;;;12.90;99.90;;;;;;4751478;30;20086;-80
2021/05/23 14:01:56;;;;;;;3.40;2.38;;;12.90;99.90;;;;;;4750901;30;20519;-81
2021/05/23 14:04:24;;;;;;;1.75;0.70;;;12.90;99.90;;;;;;4751340;30;20471;-81
2021/05/23 14:06:52;;;;;;;2.88;0.70;;;13.00;99.90;;;;;;4736488;30;20056;-80
2021/05/23 14:09:21;;;;;;;1.30;0.73;;;13.00;99.90;;;;;;4750303;30;20060;-81